Time;durP1;ratioP1;P1;durP2;ratioP2;P2;SDS_P1;SDS_P2;PMS_P1;PMS_P2;Temp;Humidity;BMP_temperature;BMP_pressure;BME280_temperature;BME280_humidity;BME280_pressure;Samples;Min_cycle;Max_cycle;Signal;HPM_P1;HPM_P2
2023/10/21 00:01:15;;;;;;;0.85;0.85;;;;;;;23.53;41.30;99436.50;5071006;28;20667;-76
2023/10/21 00:03:42;;;;;;;0.80;0.80;;;;;;;23.54;41.49;99434.69;5071246;28;20202;-77
2023/10/21 00:06:08;;;;;;;0.90;0.90;;;;;;;23.49;41.38;99424.31;5070927;28;20207;-77
2023/10/21 00:08:37;;;;;;;3.30;3.00;;;;;;;23.53;41.29;99438.28;5071166;28;20202;-77
2023/10/21 00:11:05;;;;;;;0.80;0.80;;;;;;;23.37;41.47;99421.38;5070956;28;20657;-77
2023/10/21 00:13:32;;;;;;;0.82;0.82;;;;;;;23.38;42.24;99434.53;5071586;28;20199;-77
2023/10/21 00:15:59;;;;;;;1.63;1.55;;;;;;;23.32;42.43;99431.31;5071910;28;20729;-77
2023/10/21 00:18:26;;;;;;;0.73;0.73;;;;;;;23.27;42.39;99422.72;5071453;28;20195;-77
2023/10/21 00:20:54;;;;;;;2.15;1.85;;;;;;;23.14;42.56;99407.47;5070865;28;20289;-76
2023/10/21 00:23:22;;;;;;;0.80;0.80;;;;;;;23.27;43.05;99428.88;5070758;28;20234;-76
2023/10/21 00:25:50;;;;;;;0.73;0.73;;;;;;;23.13;42.88;99421.59;5035581;28;20238;-76
2023/10/21 00:28:17;;;;;;;0.80;0.80;;;;;;;23.16;42.71;99424.09;5071280;28;20264;-78
2023/10/21 00:30:45;;;;;;;0.85;0.85;;;;;;;23.16;42.64;99418.81;5071026;28;20701;-77
2023/10/21 00:33:14;;;;;;;0.93;0.93;;;;;;;23.22;42.57;99425.63;5071101;28;20246;-76
2023/10/21 00:35:44;;;;;;;0.70;0.70;;;;;;;23.21;42.75;99432.69;5071084;28;20310;-78
2023/10/21 00:38:11;;;;;;;1.42;1.42;;;;;;;23.20;42.83;99435.41;5071876;28;20195;-76
2023/10/21 00:40:38;;;;;;;4.78;1.65;;;;;;;23.09;43.22;99427.97;5075031;28;20203;-77
2023/10/21 00:43:06;;;;;;;0.93;0.93;;;;;;;23.11;42.98;99426.13;5074494;28;20222;-77
2023/10/21 00:45:32;;;;;;;0.90;0.90;;;;;;;23.16;42.89;99424.09;5074369;28;20203;-76
2023/10/21 00:47:59;;;;;;;0.85;0.85;;;;;;;22.96;42.93;99396.88;5074330;28;20203;-77
2023/10/21 00:50:26;;;;;;;0.65;0.65;;;;;;;23.04;43.32;99429.97;5074238;28;20203;-77
2023/10/21 00:52:53;;;;;;;1.23;1.10;;;;;;;23.09;42.96;99427.97;5074310;28;20622;-76
2023/10/21 00:55:20;;;;;;;0.80;0.80;;;;;;;23.07;43.12;99429.84;5074343;28;20235;-76
2023/10/21 00:57:47;;;;;;;1.30;1.20;;;;;;;23.09;42.83;99425.31;5074349;28;20681;-77
2023/10/21 01:00:16;;;;;;;0.85;0.85;;;;;;;23.14;43.01;99417.19;5074398;28;20548;-77
2023/10/21 01:02:43;;;;;;;0.90;0.90;;;;;;;23.02;42.76;99402.72;5074247;28;20210;-77
2023/10/21 01:05:12;;;;;;;0.70;0.70;;;;;;;23.07;42.37;99424.53;5074766;28;20206;-77
2023/10/21 01:07:43;;;;;;;1.02;1.02;;;;;;;23.14;42.76;99419.81;5074372;28;20685;-78
2023/10/21 01:10:11;;;;;;;0.80;0.80;;;;;;;23.07;42.59;99424.53;5073892;28;20690;-76
2023/10/21 01:12:39;;;;;;;0.80;0.80;;;;;;;22.96;42.76;99405.66;5074655;28;20684;-77
2023/10/21 01:15:08;;;;;;;0.70;0.70;;;;;;;23.07;42.63;99428.97;5073968;28;20258;-77
2023/10/21 01:17:36;;;;;;;0.80;0.80;;;;;;;22.98;42.50;99419.66;5071806;28;20224;-76
2023/10/21 01:20:06;;;;;;;1.42;1.33;;;;;;;23.00;42.47;99407.25;5073592;28;20202;-76
2023/10/21 01:22:32;;;;;;;0.80;0.80;;;;;;;23.20;42.72;99445.97;5071731;28;20190;-77
2023/10/21 01:25:01;;;;;;;0.60;0.60;;;;;;;23.15;42.60;99443.53;5073734;28;20224;-76
2023/10/21 01:27:27;;;;;;;4.63;1.25;;;;;;;23.13;42.67;99440.13;5073614;28;20206;-76
2023/10/21 01:29:54;;;;;;;0.70;0.70;;;;;;;23.06;43.08;99443.97;5073477;28;20712;-76
2023/10/21 01:32:21;;;;;;;1.00;1.00;;;;;;;23.07;43.17;99448.34;5073487;28;20675;-76
2023/10/21 01:34:48;;;;;;;1.13;1.13;;;;;;;22.99;43.26;99447.81;5073429;28;20229;-76
2023/10/21 01:37:15;;;;;;;0.90;0.90;;;;;;;22.88;43.17;99421.00;5038524;28;20210;-76
2023/10/21 01:39:45;;;;;;;0.70;0.70;;;;;;;22.96;43.19;99434.75;5073674;28;20289;-76
2023/10/21 01:42:13;;;;;;;1.02;1.02;;;;;;;22.88;42.94;99418.38;5073457;28;20191;-77
2023/10/21 01:44:40;;;;;;;0.98;0.98;;;;;;;23.07;42.57;99445.69;5055197;28;20207;-77
2023/10/21 01:47:07;;;;;;;0.70;0.70;;;;;;;23.18;42.05;99455.78;5038625;28;20206;-77
2023/10/21 01:49:34;;;;;;;0.80;0.80;;;;;;;23.19;41.91;99449.53;5074008;28;20241;-77
2023/10/21 01:52:01;;;;;;;1.20;1.20;;;;;;;23.18;41.87;99456.66;5038491;28;20203;-77
2023/10/21 01:54:27;;;;;;;0.90;0.90;;;;;;;23.23;41.67;99451.13;5073445;28;20210;-77
2023/10/21 01:56:54;;;;;;;0.80;0.80;;;;;;;23.09;41.78;99420.03;5073617;28;20264;-77
2023/10/21 01:59:22;;;;;;;2.58;1.88;;;;;;;23.21;42.08;99448.56;5073403;28;20210;-76
2023/10/21 02:01:49;;;;;;;0.90;0.90;;;;;;;23.13;42.27;99449.84;5073853;28;20282;-76
2023/10/21 02:04:16;;;;;;;0.70;0.70;;;;;;;23.11;42.11;99452.56;5073656;28;20339;-77
2023/10/21 02:06:43;;;;;;;1.02;1.02;;;;;;;23.06;41.67;99459.84;5055096;28;20195;-77
2023/10/21 02:09:10;;;;;;;0.80;0.80;;;;;;;23.07;41.67;99458.91;5073773;28;20207;-77
2023/10/21 02:11:37;;;;;;;0.90;0.90;;;;;;;23.15;41.59;99464.69;5073091;28;20214;-77
2023/10/21 02:14:03;;;;;;;0.88;0.88;;;;;;;22.96;41.70;99425.97;5073415;28;20202;-77
2023/10/21 02:16:31;;;;;;;4.03;1.60;;;;;;;23.22;41.07;99455.53;5072891;28;20250;-77
2023/10/21 02:18:58;;;;;;;0.77;0.77;;;;;;;23.16;40.98;99458.50;5073517;28;20203;-76
2023/10/21 02:21:25;;;;;;;0.63;0.63;;;;;;;23.13;41.66;99445.41;5054953;28;20214;-77
2023/10/21 02:23:52;;;;;;;0.73;0.73;;;;;;;23.22;41.73;99471.41;5073176;28;20211;-78
2023/10/21 02:26:19;;;;;;;1.08;1.08;;;;;;;23.17;41.88;99464.63;5073023;28;20195;-78
2023/10/21 02:28:46;;;;;;;0.70;0.70;;;;;;;23.17;41.77;99465.50;5073029;28;20264;-77
2023/10/21 02:31:13;;;;;;;0.80;0.80;;;;;;;23.19;41.53;99466.28;5072735;28;20234;-77
2023/10/21 02:33:41;;;;;;;6.43;1.17;;;;;;;23.18;41.50;99469.88;5072987;28;20222;-77
2023/10/21 02:36:08;;;;;;;0.80;0.80;;;;;;;23.19;41.21;99466.28;5072691;28;20223;-77
2023/10/21 02:38:36;;;;;;;0.63;0.63;;;;;;;23.27;41.01;99479.16;5073011;28;20230;-77
2023/10/21 02:41:05;;;;;;;0.82;0.80;;;;;;;23.36;40.97;99477.88;5053786;28;20286;-77
2023/10/21 02:43:32;;;;;;;2.50;1.60;;;;;;;23.26;41.31;99480.06;5053899;28;20203;-77
2023/10/21 02:46:07;;;;;;;0.68;0.68;;;;;;;23.10;42.05;99450.84;5072300;28;20224;-77
2023/10/21 02:48:34;;;;;;;1.15;1.15;;;;;;;23.19;41.69;99482.16;5072262;28;20198;-78
2023/10/21 02:51:09;;;;;;;1.17;1.17;;;;;;;23.16;41.58;99492.88;5072191;28;20705;-77
2023/10/21 02:53:37;;;;;;;1.38;1.25;;;;;;;23.14;41.87;99488.59;5072570;28;20205;-77
2023/10/21 02:56:05;;;;;;;1.88;1.77;;;;;;;23.12;42.36;99491.28;5072181;28;20229;-77
2023/10/21 02:58:32;;;;;;;0.90;0.90;;;;;;;23.12;41.88;99490.44;5037152;28;20205;-77
2023/10/21 03:00:59;;;;;;;0.70;0.70;;;;;;;23.11;42.13;99494.88;5071240;28;20195;-78
2023/10/21 03:03:26;;;;;;;0.90;0.90;;;;;;;23.10;41.95;99481.72;5071709;28;20199;-77
2023/10/21 03:05:53;;;;;;;5.82;1.23;;;;;;;23.07;42.14;99484.50;5071581;28;20206;-78
2023/10/21 03:08:21;;;;;;;0.80;0.80;;;;;;;23.14;42.58;99507.09;5071703;28;20294;-77
2023/10/21 03:10:48;;;;;;;0.73;0.73;;;;;;;22.86;43.65;99501.34;5071939;28;20205;-78
2023/10/21 03:13:15;;;;;;;0.90;0.90;;;;;;;22.80;43.04;99502.44;5071869;28;20226;-78
2023/10/21 03:15:42;;;;;;;1.02;1.02;;;;;;;22.93;42.52;99514.22;5053195;28;20661;-76
2023/10/21 03:18:09;;;;;;;3.20;1.83;;;;;;;22.89;41.98;99477.41;5036619;28;20674;-76
2023/10/21 03:20:35;;;;;;;0.80;0.80;;;;;;;23.14;41.77;99497.38;5071623;28;20203;-76
2023/10/21 03:23:03;;;;;;;4.97;2.10;;;;;;;22.94;41.57;99478.91;5072290;28;20268;-77
2023/10/21 03:25:33;;;;;;;0.90;0.90;;;;;;;23.15;41.30;99522.88;5053587;28;20749;-77
2023/10/21 03:28:00;;;;;;;1.63;1.52;;;;;;;22.62;44.77;99508.50;5072287;28;20285;-77
2023/10/21 03:30:26;;;;;;;0.88;0.88;;;;;;;22.01;45.93;99492.59;5072538;28;20237;-77
2023/10/21 03:32:53;;;;;;;0.80;0.80;;;;;;;21.67;44.86;99465.81;5072388;28;20209;-77
2023/10/21 03:35:20;;;;;;;0.90;0.90;;;;;;;22.13;43.37;99504.44;5072326;28;20284;-77
2023/10/21 03:37:47;;;;;;;0.63;0.63;;;;;;;22.24;42.63;99495.16;5072269;28;20259;-77
2023/10/21 03:40:14;;;;;;;1.38;1.27;;;;;;;22.57;42.04;99518.44;5071513;28;20195;-76
2023/10/21 03:42:42;;;;;;;1.80;1.70;;;;;;;22.51;43.98;99524.81;5071668;28;20207;-77
2023/10/21 03:45:09;;;;;;;0.90;0.90;;;;;;;22.17;44.89;99528.03;5072062;28;20195;-78
2023/10/21 03:47:36;;;;;;;1.50;1.42;;;;;;;21.91;46.07;99522.91;5071912;28;20199;-78
2023/10/21 03:50:03;;;;;;;5.88;1.13;;;;;;;21.51;47.34;99517.47;5071834;28;20203;-78
2023/10/21 03:52:29;;;;;;;0.82;0.82;;;;;;;21.14;48.25;99518.84;5072416;28;20206;-78
2023/10/21 03:54:56;;;;;;;0.70;0.70;;;;;;;20.96;48.47;99510.72;5073139;28;20290;-77
2023/10/21 03:57:23;;;;;;;1.27;1.27;;;;;;;20.89;48.77;99518.00;5072546;28;20640;-77
2023/10/21 03:59:51;;;;;;;1.27;1.27;;;;;;;20.91;48.61;99521.41;5071801;28;20199;-78
2023/10/21 04:02:18;;;;;;;3.53;2.92;;;;;;;20.78;49.32;99509.59;5072334;28;20206;-77
2023/10/21 04:04:45;;;;;;;1.48;1.48;;;;;;;20.46;49.45;99471.22;5071896;28;20195;-78
2023/10/21 04:07:12;;;;;;;0.90;0.90;;;;;;;20.60;50.07;99504.97;5071963;28;20198;-77
2023/10/21 04:09:39;;;;;;;0.95;0.95;;;;;;;20.49;50.54;99491.31;5072177;28;20201;-78
2023/10/21 04:12:06;;;;;;;0.80;0.80;;;;;;;20.44;51.52;99511.72;5072635;28;20191;-78
2023/10/21 04:14:33;;;;;;;0.80;0.80;;;;;;;20.23;52.22;99506.19;5075364;28;20732;-78
2023/10/21 04:17:01;;;;;;;0.98;0.98;;;;;;;20.17;53.54;99510.81;5075106;28;20223;-77
2023/10/21 04:19:28;;;;;;;0.80;0.80;;;;;;;20.00;54.48;99510.50;5075710;28;20209;-77
2023/10/21 04:21:55;;;;;;;1.17;1.17;;;;;;;19.83;55.87;99504.94;5076104;28;20198;-77
2023/10/21 04:24:21;;;;;;;1.13;1.13;;;;;;;19.66;56.73;99503.66;5075983;28;20287;-78
2023/10/21 04:26:48;;;;;;;0.90;0.90;;;;;;;19.60;57.84;99501.25;5075610;28;20206;-77
2023/10/21 04:29:16;;;;;;;0.90;0.90;;;;;;;19.54;58.48;99500.56;5075562;28;20293;-77
2023/10/21 04:31:43;;;;;;;0.85;0.85;;;;;;;19.44;59.25;99501.78;5075012;28;20371;-77
2023/10/21 04:34:12;;;;;;;2.47;2.35;;;;;;;19.48;59.25;99513.88;5075011;28;20194;-78
2023/10/21 04:36:39;;;;;;;1.00;1.00;;;;;;;19.37;59.25;99508.91;5075286;28;20226;-78
2023/10/21 04:39:07;;;;;;;3.05;1.88;;;;;;;19.39;57.27;99503.63;5075299;28;20206;-78
2023/10/21 04:41:34;;;;;;;0.90;0.90;;;;;;;19.52;54.58;99499.75;5075168;28;20191;-78
2023/10/21 04:44:01;;;;;;;1.00;1.00;;;;;;;19.76;50.74;99504.28;5075951;28;20199;-77
2023/10/21 04:46:29;;;;;;;1.60;1.50;;;;;;;20.37;47.25;99518.09;5075108;28;20685;-76
2023/10/21 04:48:56;;;;;;;1.25;1.25;;;;;;;21.33;43.37;99502.34;5074696;28;20264;-78
2023/10/21 04:51:24;;;;;;;0.98;0.98;;;;;;;21.87;42.66;99526.56;5074632;28;20297;-77
2023/10/21 04:53:51;;;;;;;0.95;0.82;;;;;;;22.39;41.07;99533.28;5074350;28;20202;-77
2023/10/21 04:56:18;;;;;;;1.33;1.33;;;;;;;22.73;39.93;99530.94;5039337;28;20223;-77
2023/10/21 04:58:45;;;;;;;0.70;0.70;;;;;;;22.99;39.80;99532.44;5074470;28;20234;-77
2023/10/21 05:01:16;;;;;;;1.02;1.02;;;;;;;23.32;39.04;99540.66;5074419;28;20190;-77
2023/10/21 05:03:42;;;;;;;0.95;0.95;;;;;;;23.29;38.89;99545.22;5074754;28;20222;-77
2023/10/21 05:06:09;;;;;;;0.70;0.70;;;;;;;22.98;41.57;99546.59;5074653;28;20251;-76
2023/10/21 05:08:37;;;;;;;0.73;0.73;;;;;;;22.65;44.00;99563.91;5074271;28;20195;-77
2023/10/21 05:11:06;;;;;;;1.35;1.30;;;;;;;22.05;46.29;99561.97;5074870;28;20195;-78
2023/10/21 05:13:33;;;;;;;1.20;1.13;;;;;;;21.37;48.80;99561.97;5076253;28;20199;-78
2023/10/21 05:15:59;;;;;;;0.85;0.85;;;;;;;21.13;49.28;99563.72;5074220;28;20226;-77
2023/10/21 05:18:26;;;;;;;2.63;1.67;;;;;;;20.91;50.69;99571.50;5073906;28;20191;-78
2023/10/21 05:20:53;;;;;;;1.10;1.10;;;;;;;20.49;51.56;99541.38;5074022;28;20199;-76
2023/10/21 05:23:20;;;;;;;1.80;1.73;;;;;;;20.55;52.36;99591.19;5073951;28;20214;-77
2023/10/21 05:25:49;;;;;;;0.80;0.80;;;;;;;20.44;52.83;99594.19;5073794;28;20264;-77
2023/10/21 05:28:15;;;;;;;1.05;1.05;;;;;;;20.17;53.01;99574.00;5055431;28;20213;-77
2023/10/21 05:30:43;;;;;;;1.05;1.05;;;;;;;20.24;53.27;99610.59;5073892;28;20230;-76
2023/10/21 05:33:10;;;;;;;0.73;0.73;;;;;;;20.17;54.33;99619.59;5073985;28;20203;-76
2023/10/21 05:35:36;;;;;;;1.35;1.35;;;;;;;20.17;54.35;99631.91;5073472;28;20277;-76
2023/10/21 05:38:04;;;;;;;0.93;0.93;;;;;;;20.19;53.97;99633.56;5074643;28;20195;-76
2023/10/21 05:40:30;;;;;;;1.15;1.15;;;;;;;20.21;53.68;99633.53;5074869;28;21048;-77
2023/10/21 05:42:58;;;;;;;1.40;1.40;;;;;;;20.27;54.12;99633.34;5074407;28;20195;-77
2023/10/21 05:45:25;;;;;;;0.90;0.90;;;;;;;20.05;54.93;99624.38;5068349;28;20214;-83
2023/10/21 05:47:53;;;;;;;0.82;0.82;;;;;;;20.04;54.95;99641.97;5053524;28;20604;-75
2023/10/21 05:50:21;;;;;;;0.80;0.80;;;;;;;20.19;55.60;99652.00;5072809;28;20206;-75
2023/10/21 05:52:48;;;;;;;0.80;0.80;;;;;;;20.26;54.41;99647.44;5071286;28;20291;-77
2023/10/21 05:55:15;;;;;;;0.85;0.85;;;;;;;20.28;53.78;99654.41;5053845;28;20203;-76
2023/10/21 05:57:41;;;;;;;2.35;1.00;;;;;;;20.22;54.22;99657.19;5067391;28;20643;-75
2023/10/21 06:00:11;;;;;;;1.00;1.00;;;;;;;20.14;54.35;99646.03;5053378;28;20215;-78
2023/10/21 06:02:39;;;;;;;1.35;1.17;;;;;;;20.23;54.23;99665.94;5066008;28;20643;-77
2023/10/21 06:05:06;;;;;;;0.80;0.80;;;;;;;20.24;54.33;99665.91;5073024;28;20264;-75
2023/10/21 06:07:33;;;;;;;0.77;0.77;;;;;;;20.31;54.73;99669.22;5073026;28;20289;-77
2023/10/21 06:10:00;;;;;;;1.58;1.55;;;;;;;20.33;55.17;99669.19;5072723;28;20203;-75
2023/10/21 06:12:28;;;;;;;0.95;0.95;;;;;;;20.35;54.89;99667.38;5054733;28;20206;-76
2023/10/21 06:14:55;;;;;;;1.45;1.35;;;;;;;20.38;54.28;99680.44;5072507;28;20675;-76
2023/10/21 06:17:23;;;;;;;0.70;0.70;;;;;;;20.49;53.67;99696.75;5072366;28;20229;-75
2023/10/21 06:19:50;;;;;;;0.80;0.80;;;;;;;20.43;53.57;99681.16;5072354;28;20206;-75
2023/10/21 06:22:16;;;;;;;1.67;1.38;;;;;;;20.53;54.83;99688.72;5058508;28;20198;-75
2023/10/21 06:24:43;;;;;;;3.78;2.70;;;;;;;20.59;54.64;99687.66;5072239;28;20199;-75
2023/10/21 06:27:11;;;;;;;1.17;1.17;;;;;;;20.61;53.93;99701.66;5072014;28;20195;-75
2023/10/21 06:29:38;;;;;;;0.98;0.95;;;;;;;20.73;53.37;99701.25;5072477;28;20290;-82
2023/10/21 06:32:06;;;;;;;1.35;1.35;;;;;;;20.68;53.72;99698.78;5072475;28;20230;-80
2023/10/21 06:34:34;;;;;;;0.90;0.90;;;;;;;20.77;54.34;99697.59;5073368;28;20206;-82
2023/10/21 06:37:02;;;;;;;0.80;0.80;;;;;;;20.86;54.13;99686.78;5071800;28;20244;-83
2023/10/21 06:39:29;;;;;;;0.80;0.80;;;;;;;20.95;53.94;99702.28;5073181;28;20705;-82
2023/10/21 06:41:56;;;;;;;0.80;0.80;;;;;;;21.04;53.36;99699.34;5023973;28;20207;-83
2023/10/21 06:44:23;;;;;;;0.90;0.90;;;;;;;21.01;53.03;99680.97;5059558;28;20190;-83
2023/10/21 06:46:51;;;;;;;0.80;0.80;;;;;;;21.25;51.91;99698.66;5037616;28;20206;-82
2023/10/21 06:49:19;;;;;;;1.25;1.25;;;;;;;21.16;50.94;99666.44;5038004;28;20333;-82
2023/10/21 06:51:49;;;;;;;1.67;1.30;;;;;;;21.42;51.67;99702.47;5075071;28;20202;-83
2023/10/21 06:54:17;;;;;;;0.82;0.82;;;;;;;21.50;52.06;99710.97;5058431;28;20203;-82
2023/10/21 06:56:45;;;;;;;0.85;0.85;;;;;;;21.59;52.16;99705.34;5072433;28;20238;-76
2023/10/21 06:59:13;;;;;;;2.33;2.22;;;;;;;21.73;52.01;99718.91;5071554;28;20206;-79
2023/10/21 07:01:39;;;;;;;0.90;0.90;;;;;;;21.78;51.21;99695.88;5059160;28;20225;-78
2023/10/21 07:04:09;;;;;;;1.00;1.00;;;;;;;21.97;50.84;99718.06;5072022;28;20232;-78
2023/10/21 07:06:36;;;;;;;0.70;0.70;;;;;;;21.88;51.61;99702.53;5071938;28;20638;-76
2023/10/21 07:09:05;;;;;;;1.42;1.42;;;;;;;22.04;51.64;99716.94;5073457;28;20207;-77
2023/10/21 07:11:31;;;;;;;1.60;1.50;;;;;;;22.09;51.63;99720.22;5079037;28;20203;-77
2023/10/21 07:13:59;;;;;;;0.80;0.80;;;;;;;22.19;51.70;99718.09;5082677;28;20649;-76
2023/10/21 07:16:26;;;;;;;1.00;1.00;;;;;;;22.19;52.62;99713.69;5077945;28;20659;-77
2023/10/21 07:18:52;;;;;;;1.45;1.35;;;;;;;22.20;52.17;99710.13;5059692;28;20214;-77
2023/10/21 07:21:19;;;;;;;0.70;0.70;;;;;;;22.14;53.19;99685.75;5070291;28;20194;-77
2023/10/21 07:23:46;;;;;;;1.50;1.40;;;;;;;22.18;52.56;99696.13;5074789;28;20249;-77
2023/10/21 07:26:14;;;;;;;1.20;1.20;;;;;;;22.36;52.86;99715.69;5062213;28;20207;-77
2023/10/21 07:28:41;;;;;;;0.90;0.90;;;;;;;22.42;53.11;99711.94;5058384;28;20572;-79
2023/10/21 07:31:08;;;;;;;0.70;0.70;;;;;;;22.27;51.87;99709.88;5071750;28;20234;-79
2023/10/21 07:33:36;;;;;;;2.15;0.93;;;;;;;22.22;51.21;99697.72;5057721;28;20252;-80
2023/10/21 07:36:04;;;;;;;0.90;0.90;;;;;;;22.44;50.72;99707.47;5072409;28;20238;-77
2023/10/21 07:38:31;;;;;;;0.90;0.90;;;;;;;22.40;48.87;99690.84;5071571;28;20673;-79
2023/10/21 07:40:58;;;;;;;1.40;1.30;;;;;;;22.52;50.45;99726.50;5072032;28;20234;-80
2023/10/21 07:43:27;;;;;;;1.02;1.02;;;;;;;22.66;48.99;99729.47;5072162;28;20210;-79
2023/10/21 07:45:55;;;;;;;2.55;2.35;;;;;;;22.42;48.78;99725.16;5045987;28;20195;-81
2023/10/21 07:48:22;;;;;;;3.22;1.45;;;;;;;22.51;48.18;99730.09;5050173;28;20218;-79
2023/10/21 07:50:53;;;;;;;0.90;0.90;;;;;;;22.71;49.08;99740.75;5056294;28;20587;-79
2023/10/21 07:53:20;;;;;;;1.00;1.00;;;;;;;22.85;49.93;99740.19;5068288;28;20205;-80
2023/10/21 07:55:49;;;;;;;0.95;0.95;;;;;;;22.92;50.60;99725.81;5075734;28;20213;-79
2023/10/21 07:58:16;;;;;;;0.80;0.80;;;;;;;23.03;48.85;99750.91;5068547;28;20689;-80
2023/10/21 08:00:44;;;;;;;1.42;1.33;;;;;;;23.14;48.03;99730.16;5069390;28;20300;-78
2023/10/21 08:03:11;;;;;;;0.90;0.90;;;;;;;23.20;47.48;99735.19;5075357;28;20669;-80
2023/10/21 08:05:38;;;;;;;5.28;1.77;;;;;;;23.37;47.71;99749.47;5076446;28;20689;-81
2023/10/21 08:08:05;;;;;;;2.70;1.98;;;;;;;23.35;47.09;99735.44;5066184;28;20203;-80
2023/10/21 08:10:32;;;;;;;1.30;1.30;;;;;;;23.41;47.67;99761.66;5081918;28;20275;-80
2023/10/21 08:12:59;;;;;;;0.95;0.95;;;;;;;23.50;48.49;99754.22;5080012;28;20202;-80
2023/10/21 08:15:27;;;;;;;0.95;0.95;;;;;;;23.56;48.82;99734.56;5075984;28;20203;-80
2023/10/21 08:17:55;;;;;;;1.25;1.25;;;;;;;23.79;48.45;99750.31;5074985;28;20227;-80
2023/10/21 08:20:21;;;;;;;0.70;0.70;;;;;;;23.84;49.06;99752.75;5068292;28;20649;-80
2023/10/21 08:22:48;;;;;;;1.13;1.13;;;;;;;23.98;49.04;99742.38;5069186;28;20207;-79
2023/10/21 08:25:15;;;;;;;1.75;1.05;;;;;;;24.10;48.41;99748.00;5075496;28;20290;-80
2023/10/21 08:27:42;;;;;;;0.80;0.80;;;;;;;24.23;48.01;99736.84;5075210;28;20206;-80
2023/10/21 08:30:10;;;;;;;1.60;1.50;;;;;;;24.32;49.15;99741.75;5074758;28;20253;-81
2023/10/21 08:32:37;;;;;;;0.98;0.98;;;;;;;24.40;50.08;99726.34;5040190;28;20659;-81
2023/10/21 08:35:06;;;;;;;0.70;0.70;;;;;;;24.47;49.85;99741.03;5076402;28;20199;-80
2023/10/21 08:37:33;;;;;;;0.93;0.93;;;;;;;24.40;49.69;99729.00;5076316;28;20593;-80
2023/10/21 08:40:00;;;;;;;4.78;2.00;;;;;;;24.43;49.03;99712.94;5075554;28;20199;-79
2023/10/21 08:42:26;;;;;;;1.65;1.55;;;;;;;24.44;48.54;99747.31;5075518;28;20199;-78
2023/10/21 08:44:55;;;;;;;1.40;1.40;;;;;;;24.44;48.00;99738.50;5075212;28;20207;-78
2023/10/21 08:47:23;;;;;;;1.75;1.67;;;;;;;24.26;48.31;99711.06;5055870;28;20195;-79
2023/10/21 08:49:50;;;;;;;1.92;1.90;;;;;;;24.45;48.13;99713.72;5067785;28;20743;-79
2023/10/21 08:52:19;;;;;;;11.90;2.00;;;;;;;24.64;47.69;99727.84;5076462;28;20207;-79
2023/10/21 08:54:46;;;;;;;2.58;2.30;;;;;;;24.72;47.30;99741.59;5060934;28;20207;-81
2023/10/21 08:57:13;;;;;;;0.95;0.95;;;;;;;24.54;47.05;99745.13;5063660;28;20291;-78
2023/10/21 08:59:40;;;;;;;0.90;0.90;;;;;;;24.51;47.64;99747.88;5071536;28;20726;-77
2023/10/21 09:02:08;;;;;;;2.05;1.88;;;;;;;24.62;47.13;99756.19;5038800;28;20214;-78
2023/10/21 09:04:34;;;;;;;0.93;0.93;;;;;;;24.76;47.01;99755.56;5074124;28;20201;-77
2023/10/21 09:07:02;;;;;;;1.00;1.00;;;;;;;24.92;47.37;99762.72;5074065;28;20198;-78
2023/10/21 09:09:30;;;;;;;1.10;1.05;;;;;;;24.88;47.23;99736.41;5073789;28;20209;-78
2023/10/21 09:12:05;;;;;;;1.48;1.38;;;;;;;25.12;46.39;99751.97;5073882;28;20203;-81
2023/10/21 09:14:51;;;;;;;3.55;1.08;;;;;;;25.35;46.21;99748.19;5074163;28;20267;-78
2023/10/21 09:17:17;;;;;;;1.55;1.45;;;;;;;25.43;46.25;99748.66;5073774;28;20351;-78
2023/10/21 09:19:44;;;;;;;1.20;1.20;;;;;;;25.41;45.54;99747.88;5057521;28;20211;-75
2023/10/21 09:22:21;;;;;;;1.88;1.77;;;;;;;25.55;45.50;99749.84;5054061;28;20710;-77
2023/10/21 09:24:49;;;;;;;2.25;1.45;;;;;;;25.71;44.73;99753.44;5055139;28;20210;-76
2023/10/21 09:27:16;;;;;;;2.42;1.77;;;;;;;25.81;45.38;99752.00;5073453;28;20210;-77
2023/10/21 09:29:43;;;;;;;1.95;1.45;;;;;;;25.99;44.21;99747.53;5073521;28;20199;-79
2023/10/21 09:32:10;;;;;;;1.38;1.38;;;;;;;26.18;44.26;99742.97;5074067;28;20202;-80
2023/10/21 09:34:37;;;;;;;0.73;0.73;;;;;;;26.31;43.28;99738.69;5074533;28;20210;-78
2023/10/21 09:37:06;;;;;;;0.80;0.80;;;;;;;26.41;43.56;99731.91;5074016;28;20276;-79
2023/10/21 09:39:36;;;;;;;4.35;1.67;;;;;;;26.68;44.05;99749.94;5074612;28;20237;-80
2023/10/21 09:42:05;;;;;;;7.13;1.02;;;;;;;26.54;43.08;99726.78;5073641;28;20198;-79
2023/10/21 09:44:34;;;;;;;6.75;2.08;;;;;;;26.66;43.82;99725.22;5073847;28;20210;-79
2023/10/21 09:47:05;;;;;;;2.15;1.98;;;;;;;26.96;43.01;99745.66;5074025;28;20207;-79
2023/10/21 09:49:37;;;;;;;1.33;1.33;;;;;;;27.04;43.13;99738.09;5039149;28;20206;-79
2023/10/21 09:52:06;;;;;;;10.73;2.28;;;;;;;27.07;42.28;99737.06;5057753;28;20231;-79
2023/10/21 09:54:41;;;;;;;0.80;0.80;;;;;;;27.08;42.04;99744.94;5067651;28;20204;-79
2023/10/21 09:57:11;;;;;;;2.35;1.10;;;;;;;27.14;42.28;99737.56;5065042;28;20313;-79
2023/10/21 09:59:39;;;;;;;1.45;1.10;;;;;;;27.23;43.32;99745.00;5072879;28;20739;-79
2023/10/21 10:02:06;;;;;;;1.55;1.45;;;;;;;27.26;44.33;99737.69;5072980;28;20627;-80
2023/10/21 10:04:35;;;;;;;5.07;2.22;;;;;;;27.35;43.79;99737.16;5072922;28;20202;-79
2023/10/21 10:07:06;;;;;;;0.80;0.80;;;;;;;27.42;43.54;99737.66;5073311;28;20206;-80
2023/10/21 10:09:33;;;;;;;1.58;1.48;;;;;;;27.48;44.08;99745.28;5074420;28;20253;-80
2023/10/21 10:12:04;;;;;;;1.55;1.55;;;;;;;27.61;43.67;99732.97;5073031;28;20207;-81
2023/10/21 10:14:33;;;;;;;1.40;1.27;;;;;;;27.74;43.43;99723.28;5073174;28;20203;-80
2023/10/21 10:17:00;;;;;;;1.70;1.60;;;;;;;27.71;43.52;99699.50;5064887;28;20235;-80
2023/10/21 10:19:38;;;;;;;1.95;1.55;;;;;;;28.02;42.97;99725.09;5053674;28;20203;-80
2023/10/21 10:22:21;;;;;;;1.45;1.45;;;;;;;28.12;42.86;99726.25;5060484;28;20202;-80
2023/10/21 10:24:54;;;;;;;2.00;1.10;;;;;;;28.24;40.76;99727.31;5073138;28;20238;-78
2023/10/21 10:27:25;;;;;;;2.15;1.95;;;;;;;28.32;40.02;99719.69;5038652;28;20666;-79
2023/10/21 10:29:53;;;;;;;0.90;0.90;;;;;;;28.40;38.38;99712.88;5071474;28;20202;-77
2023/10/21 10:32:20;;;;;;;0.88;0.88;;;;;;;28.47;37.48;99713.34;5060763;28;20199;-77
2023/10/21 10:34:53;;;;;;;0.93;0.93;;;;;;;28.59;36.58;99712.56;5072957;28;20260;-78
2023/10/21 10:37:31;;;;;;;0.85;0.85;;;;;;;28.70;36.24;99712.75;5040329;28;20226;-78
2023/10/21 10:39:58;;;;;;;3.92;1.30;;;;;;;28.81;36.45;99712.91;5072005;28;20206;-79
2023/10/21 10:42:28;;;;;;;1.48;1.35;;;;;;;28.95;36.04;99714.66;5072223;28;20605;-77
2023/10/21 10:44:56;;;;;;;0.95;0.95;;;;;;;28.94;35.74;99697.78;5058675;28;20652;-78
2023/10/21 10:47:23;;;;;;;1.48;1.40;;;;;;;28.94;34.94;99689.78;5057855;28;20198;-78
2023/10/21 10:49:58;;;;;;;1.88;1.77;;;;;;;29.23;34.14;99711.00;5072225;28;20206;-79
2023/10/21 10:52:31;;;;;;;0.73;0.73;;;;;;;29.30;34.09;99709.66;5072391;28;20581;-79
2023/10/21 10:54:58;;;;;;;1.35;1.35;;;;;;;29.37;34.94;99709.16;5064660;28;20207;-78
2023/10/21 10:57:25;;;;;;;1.17;1.17;;;;;;;29.42;34.54;99708.84;5053079;28;20230;-77
2023/10/21 10:59:52;;;;;;;1.05;1.05;;;;;;;29.02;34.38;99631.41;5072458;28;20194;-78
2023/10/21 11:02:21;;;;;;;1.67;1.58;;;;;;;29.62;34.36;99700.28;5059522;28;20265;-76
2023/10/21 11:04:49;;;;;;;1.77;1.30;;;;;;;29.54;34.36;99679.44;5070760;28;20210;-78
2023/10/21 11:07:16;;;;;;;1.88;1.77;;;;;;;29.72;33.70;99705.84;5071904;28;20268;-77
2023/10/21 11:09:43;;;;;;;2.08;0.93;;;;;;;29.71;34.27;99707.69;5035423;28;20206;-78
2023/10/21 11:12:10;;;;;;;2.08;1.95;;;;;;;29.72;33.17;99717.41;5061339;28;20206;-78
2023/10/21 11:14:37;;;;;;;0.82;0.82;;;;;;;29.75;33.02;99705.66;5069916;28;20203;-78
2023/10/21 11:17:05;;;;;;;1.08;1.08;;;;;;;29.59;32.88;99679.13;5059799;28;20215;-80
2023/10/21 11:19:33;;;;;;;1.08;1.08;;;;;;;29.79;33.02;99699.97;5071370;28;20253;-78
2023/10/21 11:22:00;;;;;;;1.60;0.98;;;;;;;29.80;33.05;99698.16;5072050;28;20268;-78
2023/10/21 11:24:27;;;;;;;3.25;1.48;;;;;;;29.76;32.46;99696.66;5071847;28;20198;-78
2023/10/21 11:26:55;;;;;;;1.40;1.40;;;;;;;29.87;32.38;99697.66;5066547;28;20199;-79
2023/10/21 11:29:23;;;;;;;1.48;1.40;;;;;;;29.92;31.62;99692.84;5062854;28;20210;-78
2023/10/21 11:31:50;;;;;;;1.33;1.33;;;;;;;30.00;31.44;99694.97;5068213;28;20254;-79
2023/10/21 11:34:19;;;;;;;1.85;1.42;;;;;;;30.04;31.55;99700.97;5062748;28;20744;-78
2023/10/21 11:36:49;;;;;;;1.20;1.20;;;;;;;29.90;32.31;99681.38;5071560;28;20667;-78